»·PEaware :: AAL9987 KPHX-KVCV

AAL9987 :: KPHX-KVCV

FLIGHT INFORMATION

Flight Status: Arrived
Operator:
American Airlines
More flights by this operator :: More flights under this callsign
Pilot: Drew Leevy (13237)
Aircraft: BOEING 767-300
(B763)
More flights by this aircraft type
Origin: KPHX Phoenix Sky Harbor Intl
United States
Destination: KVCV Socal Logistics
United States
More flights between these airports :: More routes between these airports
Route: +IZZZO6 MESSI PSP APLES
File this flight plan on PilotEdge
Remarks: Ferry Flight
Altitude:
(Current/Filed)
40,000ft
Speed:
(Current/Filed)
400kts
Departed: 23-Apr-17 04:00 PM
Arrived: 23-Apr-17 05:02 PM
Distance/Time
Traveled:
276nm/1:02
Distance/Time
To Go:
Arrived

Flight Plot

Page will automatically refresh every two minutes.

Flight plan parsing failed; only flown route is shown


Map Options




Map Legend


Flown Route
Filed Route
Departure Airport
Arrival Airport
Navaid (VOR, NDB)
Fix

Horizontal Profiles

Position Reports

Time Latitude Longitude Heading Altitude Ground
Speed
23-Apr-17 15:39 33.438421 -111.999570 168 1145ft 0kts
23-Apr-17 15:40 33.438421 -111.999570 168 1145ft 0kts
23-Apr-17 15:41 33.438421 -111.999570 168 1145ft 0kts
23-Apr-17 15:42 33.438421 -111.999570 168 1145ft 0kts
23-Apr-17 15:43 33.438421 -111.999570 168 1145ft 0kts
23-Apr-17 15:44 33.438421 -111.999570 168 1145ft 0kts
23-Apr-17 15:45 33.438421 -111.999570 168 1145ft 0kts
23-Apr-17 15:46 33.438421 -111.999570 168 1145ft 0kts
23-Apr-17 15:47 33.438421 -111.999570 168 1145ft 0kts
23-Apr-17 15:48 33.438421 -111.999570 168 1145ft 0kts
23-Apr-17 15:49 33.438421 -111.999570 168 1145ft 0kts
23-Apr-17 15:50 33.438421 -111.999570 168 1145ft 0kts
23-Apr-17 15:51 33.438421 -111.999570 168 1145ft 0kts
23-Apr-17 15:52 33.438421 -111.999570 168 1145ft 0kts
23-Apr-17 15:53 33.438928 -111.999825 128 1145ft 2kts
23-Apr-17 15:54 33.438968 -111.999891 111 1145ft 0kts
23-Apr-17 15:55 33.438968 -111.999891 111 1145ft 0kts
23-Apr-17 15:56 33.439048 -111.998807 78 1145ft 12kts
23-Apr-17 15:57 33.439722 -112.004412 270 1145ft 29kts
23-Apr-17 15:58 33.439780 -112.014831 268 1145ft 33kts
23-Apr-17 15:59 33.439769 -112.026554 269 1145ft 35kts
23-Apr-17 16:00 33.439824 -112.029420 302 1145ft 0kts
23-Apr-17 16:01 33.440863 -112.029215 85 1145ft 11kts
23-Apr-17 16:02 33.440317 -111.977985 94 3510ft 238kts
23-Apr-17 16:03 33.435672 -111.893857 99 8266ft 273kts
23-Apr-17 16:04 33.379157 -111.853445 207 12929ft 269kts
23-Apr-17 16:05 33.357388 -111.925039 277 17125ft 264kts
23-Apr-17 16:06 33.370582 -112.027122 280 19507ft 350kts
23-Apr-17 16:07 33.386722 -112.142719 280 23751ft 364kts
23-Apr-17 16:08 33.403666 -112.263929 280 27227ft 382kts
23-Apr-17 16:09 33.421425 -112.391867 280 30268ft 399kts
23-Apr-17 16:10 33.439258 -112.521391 281 33800ft 391kts
23-Apr-17 16:11 33.450492 -112.648644 274 36561ft 387kts
23-Apr-17 16:12 33.452834 -112.775988 277 38601ft 388kts
23-Apr-17 16:13 33.487297 -112.897502 292 39747ft 391kts
23-Apr-17 16:14 33.529111 -113.017934 292 39769ft 405kts
23-Apr-17 16:15 33.572183 -113.141664 292 39748ft 401kts
23-Apr-17 16:16 33.615137 -113.265444 292 39747ft 402kts
23-Apr-17 16:17 33.657831 -113.388940 292 39746ft 402kts
23-Apr-17 16:18 33.700225 -113.512031 292 39745ft 402kts
23-Apr-17 16:19 33.742803 -113.636166 293 39741ft 401kts
23-Apr-17 16:20 33.784727 -113.758852 292 39751ft 401kts
23-Apr-17 16:21 33.802567 -113.890229 275 39698ft 405kts
23-Apr-17 16:22 33.807871 -114.025262 275 39695ft 405kts
23-Apr-17 16:23 33.812639 -114.160140 275 39693ft 405kts
23-Apr-17 16:24 33.817226 -114.295299 275 39691ft 405kts
23-Apr-17 16:25 33.821643 -114.429898 275 39690ft 404kts
23-Apr-17 16:26 33.825924 -114.564818 275 39688ft 404kts
23-Apr-17 16:27 33.829740 -114.689237 274 39700ft 404kts
23-Apr-17 16:28 33.833734 -114.823909 274 39697ft 404kts
23-Apr-17 16:29 33.837581 -114.958480 274 39696ft 405kts
23-Apr-17 16:30 33.841280 -115.093472 274 39693ft 404kts
23-Apr-17 16:30 33.844250 -115.205662 275 39366ft 407kts
23-Apr-17 16:32 33.848185 -115.361429 275 37346ft 390kts
23-Apr-17 16:32 33.850765 -115.467611 275 36001ft 376kts
23-Apr-17 16:34 33.854103 -115.610735 275 34015ft 361kts
23-Apr-17 16:34 33.856125 -115.701015 274 32692ft 354kts
23-Apr-17 16:36 33.859046 -115.837003 274 30728ft 344kts
23-Apr-17 16:36 33.860981 -115.931385 274 29367ft 337kts
23-Apr-17 16:38 33.863519 -116.060882 274 27505ft 327kts
23-Apr-17 16:38 33.865210 -116.151158 274 26199ft 321kts
23-Apr-17 16:40 33.867408 -116.274232 274 24417ft 312kts
23-Apr-17 16:40 33.868869 -116.360185 274 23156ft 306kts
23-Apr-17 16:41 33.887943 -116.447183 312 20882ft 275kts
23-Apr-17 16:42 33.947256 -116.510786 314 18064ft 297kts
23-Apr-17 16:43 34.008370 -116.575249 315 16673ft 293kts
23-Apr-17 16:44 34.069260 -116.639492 315 15284ft 290kts
23-Apr-17 16:45 34.126489 -116.699976 316 14085ft 303kts
23-Apr-17 16:46 34.188685 -116.765839 316 14077ft 296kts
23-Apr-17 16:47 34.250232 -116.831138 316 14076ft 295kts
23-Apr-17 16:48 34.311993 -116.896823 316 14076ft 297kts
23-Apr-17 16:49 34.373577 -116.962367 315 14093ft 289kts
23-Apr-17 16:50 34.430541 -117.023222 315 13970ft 272kts
23-Apr-17 16:51 34.481732 -117.077940 315 12855ft 233kts
23-Apr-17 16:52 34.530734 -117.130468 315 11624ft 234kts
23-Apr-17 16:53 34.592521 -117.156086 341 10472ft 240kts
23-Apr-17 16:54 34.654444 -117.174644 341 9268ft 227kts
23-Apr-17 16:55 34.714487 -117.196212 328 7767ft 222kts
23-Apr-17 16:56 34.757317 -117.241912 307 6981ft 185kts
23-Apr-17 16:57 34.781158 -117.291128 294 6884ft 167kts
23-Apr-17 16:58 34.794808 -117.345409 282 6286ft 168kts
23-Apr-17 16:59 34.762329 -117.385279 218 5765ft 183kts
23-Apr-17 17:00 34.711058 -117.388085 186 4820ft 180kts
23-Apr-17 17:01 34.663449 -117.387276 186 3771ft 179kts
23-Apr-17 17:02 34.617642 -117.386634 188 2902ft 149kts
23-Apr-17 17:03 34.594900 -117.385958 117 2895ft 22kts
23-Apr-17 17:05 34.594811 -117.383997 119 2895ft 0kts
23-Apr-17 17:06 34.592265 -117.380790 134 2895ft 34kts
23-Apr-17 17:07 34.588512 -117.377639 151 2895ft 4kts

Navigation Log

Ident Type
Flight plan parsing failed, navigation log unavailable